Esmond, South Dakota
Current Conditions -  °F | °C
As of 11:55 AM on Friday 28 Nov 2014 (Local Time) from KHON Reporting Station
Scattered Clouds Scattered Clouds  
Wind Chill: 27°   Ceiling: Unl
Heat Index: 32°   Visibility: 10mi
Dew Point: 22°   Wind: 5mph
Humidity: 66%   Direction: 90°E
Pressure: 29.72"   Gusts: NA
Location:  44.3062°N, 97.8068°W
Report Text: KHON 281755Z AUTO 09004KT 10SM SCT120 00/M06 A2972 RMK AO2 SLP081 T00001056 10000 21067 58023
Loading
Personal Weather Stations






























Interactive Weather Map New forecast layout! Learn more

10-Day Weather Forecast

Advertisements
Track Severe Weather on mobile